sensor_id;sensor_type;location;lat;lon;timestamp;pressure;altitude;pressure_sealevel;temperature;humidity
73864;BME280;62200;52.062;5.292;2022-07-24T00:02:08;101940.03;;;15.71;82.67
73864;BME280;62200;52.062;5.292;2022-07-24T00:04:33;101926.09;;;15.66;82.60
73864;BME280;62200;52.062;5.292;2022-07-24T00:06:59;101928.88;;;15.65;82.39
73864;BME280;62200;52.062;5.292;2022-07-24T00:09:24;101925.66;;;15.60;82.21
73864;BME280;62200;52.062;5.292;2022-07-24T00:11:50;101924.25;;;15.54;83.07
73864;BME280;62200;52.062;5.292;2022-07-24T00:14:16;101910.31;;;15.49;82.75
73864;BME280;62200;52.062;5.292;2022-07-24T00:16:41;101927.03;;;15.53;82.83
73864;BME280;62200;52.062;5.292;2022-07-24T00:19:07;101927.44;;;15.47;83.28
73864;BME280;62200;52.062;5.292;2022-07-24T00:21:32;101923.16;;;15.44;82.21
73864;BME280;62200;52.062;5.292;2022-07-24T00:24:00;101920.06;;;15.50;82.28
73864;BME280;62200;52.062;5.292;2022-07-24T00:26:26;101937.66;;;15.54;82.79
73864;BME280;62200;52.062;5.292;2022-07-24T00:28:52;101914.38;;;15.42;82.40
73864;BME280;62200;52.062;5.292;2022-07-24T00:31:18;101916.06;;;15.43;82.55
73864;BME280;62200;52.062;5.292;2022-07-24T00:33:44;101934.53;;;15.48;82.72
73864;BME280;62200;52.062;5.292;2022-07-24T00:36:09;101924.13;;;15.43;82.88
73864;BME280;62200;52.062;5.292;2022-07-24T00:38:35;101920.31;;;15.33;83.31
73864;BME280;62200;52.062;5.292;2022-07-24T00:41:00;101916.66;;;15.34;83.46
73864;BME280;62200;52.062;5.292;2022-07-24T00:43:26;101916.88;;;15.31;83.35
73864;BME280;62200;52.062;5.292;2022-07-24T00:45:51;101919.34;;;15.34;82.42
73864;BME280;62200;52.062;5.292;2022-07-24T00:48:17;101920.31;;;15.33;82.93
73864;BME280;62200;52.062;5.292;2022-07-24T00:50:43;101920.69;;;15.41;83.60
73864;BME280;62200;52.062;5.292;2022-07-24T00:53:09;101909.38;;;15.24;83.83
73864;BME280;62200;52.062;5.292;2022-07-24T00:55:36;101912.72;;;15.27;83.40
73864;BME280;62200;52.062;5.292;2022-07-24T00:58:02;101928.78;;;15.27;84.51
73864;BME280;62200;52.062;5.292;2022-07-24T01:00:27;101927.25;;;15.23;83.55
73864;BME280;62200;52.062;5.292;2022-07-24T01:02:55;101919.84;;;15.14;84.46
73864;BME280;62200;52.062;5.292;2022-07-24T01:05:22;101914.25;;;15.17;84.14
73864;BME280;62200;52.062;5.292;2022-07-24T01:07:47;101906.44;;;15.14;83.80
73864;BME280;62200;52.062;5.292;2022-07-24T01:10:13;101901.09;;;15.14;83.70
73864;BME280;62200;52.062;5.292;2022-07-24T01:12:40;101911.69;;;15.15;84.41
73864;BME280;62200;52.062;5.292;2022-07-24T01:15:08;101911.91;;;15.12;84.56
73864;BME280;62200;52.062;5.292;2022-07-24T01:17:36;101921.66;;;15.13;84.96
73864;BME280;62200;52.062;5.292;2022-07-24T01:20:03;101917.91;;;15.16;84.65
73864;BME280;62200;52.062;5.292;2022-07-24T01:22:29;101901.63;;;15.06;84.58
73864;BME280;62200;52.062;5.292;2022-07-24T01:24:55;101913.38;;;15.04;85.13
73864;BME280;62200;52.062;5.292;2022-07-24T01:27:24;101906.06;;;14.93;85.44
73864;BME280;62200;52.062;5.292;2022-07-24T01:29:50;101902.72;;;14.90;85.50
73864;BME280;62200;52.062;5.292;2022-07-24T01:32:16;101900.25;;;14.87;86.32
73864;BME280;62200;52.062;5.292;2022-07-24T01:34:44;101924.91;;;14.92;86.75
73864;BME280;62200;52.062;5.292;2022-07-24T01:37:10;101915.88;;;14.80;86.99
73864;BME280;62200;52.062;5.292;2022-07-24T01:39:35;101904.91;;;14.71;87.63
73864;BME280;62200;52.062;5.292;2022-07-24T01:42:01;101904.72;;;14.74;86.28
73864;BME280;62200;52.062;5.292;2022-07-24T01:44:28;101930.28;;;14.92;85.37
73864;BME280;62200;52.062;5.292;2022-07-24T01:46:53;101918.03;;;14.88;85.16
73864;BME280;62200;52.062;5.292;2022-07-24T01:49:19;101913.75;;;14.85;85.54
73864;BME280;62200;52.062;5.292;2022-07-24T01:51:45;101910.09;;;14.86;85.42
73864;BME280;62200;52.062;5.292;2022-07-24T01:54:10;101907.16;;;14.91;84.81
73864;BME280;62200;52.062;5.292;2022-07-24T01:56:36;101898.47;;;14.87;85.51
73864;BME280;62200;52.062;5.292;2022-07-24T01:59:01;101902.63;;;14.91;84.94
73864;BME280;62200;52.062;5.292;2022-07-24T02:01:29;101911.53;;;14.92;85.43
73864;BME280;62200;52.062;5.292;2022-07-24T02:03:55;101904.25;;;14.94;85.02
73864;BME280;62200;52.062;5.292;2022-07-24T02:06:21;101890.31;;;14.89;84.90
73864;BME280;62200;52.062;5.292;2022-07-24T02:08:47;101900.06;;;14.90;85.93
73864;BME280;62200;52.062;5.292;2022-07-24T02:11:12;101900.47;;;14.84;85.53
73864;BME280;62200;52.062;5.292;2022-07-24T02:13:38;101897.41;;;14.76;85.64
73864;BME280;62200;52.062;5.292;2022-07-24T02:16:03;101900.09;;;14.76;85.65
73864;BME280;62200;52.062;5.292;2022-07-24T02:18:29;101896.16;;;14.81;85.66
73864;BME280;62200;52.062;5.292;2022-07-24T02:20:54;101885.00;;;14.75;85.52
73864;BME280;62200;52.062;5.292;2022-07-24T02:23:20;101895.41;;;14.79;85.93
73864;BME280;62200;52.062;5.292;2022-07-24T02:25:49;101886.16;;;14.71;85.88
73864;BME280;62200;52.062;5.292;2022-07-24T02:28:18;101881.03;;;14.68;86.27
73864;BME280;62200;52.062;5.292;2022-07-24T02:30:43;101889.59;;;14.73;86.10
73864;BME280;62200;52.062;5.292;2022-07-24T02:33:09;101894.19;;;14.71;86.35
73864;BME280;62200;52.062;5.292;2022-07-24T02:35:35;101865.78;;;14.56;86.55
73864;BME280;62200;52.062;5.292;2022-07-24T02:38:01;101888.16;;;14.55;87.85
73864;BME280;62200;52.062;5.292;2022-07-24T02:40:27;101877.63;;;14.52;87.25
73864;BME280;62200;52.062;5.292;2022-07-24T02:42:54;101880.59;;;14.47;87.71
73864;BME280;62200;52.062;5.292;2022-07-24T02:45:19;101888.75;;;14.46;88.09
73864;BME280;62200;52.062;5.292;2022-07-24T02:47:53;101877.38;;;14.42;87.81
73864;BME280;62200;52.062;5.292;2022-07-24T02:50:20;101877.59;;;14.39;87.78
73864;BME280;62200;52.062;5.292;2022-07-24T02:52:46;101878.41;;;14.40;86.92
73864;BME280;62200;52.062;5.292;2022-07-24T02:55:12;101864.31;;;14.38;87.23
73864;BME280;62200;52.062;5.292;2022-07-24T02:57:38;101883.94;;;14.51;86.38
73864;BME280;62200;52.062;5.292;2022-07-24T03:00:09;101885.75;;;14.50;87.53
73864;BME280;62200;52.062;5.292;2022-07-24T03:02:38;101885.50;;;14.41;86.93
73864;BME280;62200;52.062;5.292;2022-07-24T03:05:04;101863.66;;;14.34;87.00
73864;BME280;62200;52.062;5.292;2022-07-24T03:07:30;101868.38;;;14.43;86.23
73864;BME280;62200;52.062;5.292;2022-07-24T03:09:55;101873.25;;;14.51;85.97
73864;BME280;62200;52.062;5.292;2022-07-24T03:12:21;101858.84;;;14.39;86.62
73864;BME280;62200;52.062;5.292;2022-07-24T03:14:47;101854.19;;;14.29;87.38
73864;BME280;62200;52.062;5.292;2022-07-24T03:17:12;101867.72;;;14.40;86.01
73864;BME280;62200;52.062;5.292;2022-07-24T03:19:38;101859.91;;;14.37;86.56
73864;BME280;62200;52.062;5.292;2022-07-24T03:22:03;101845.41;;;14.27;86.98
73864;BME280;62200;52.062;5.292;2022-07-24T03:24:29;101847.22;;;14.26;86.82
73864;BME280;62200;52.062;5.292;2022-07-24T03:26:54;101852.28;;;14.31;86.79
73864;BME280;62200;52.062;5.292;2022-07-24T03:29:21;101856.34;;;14.36;86.56
73864;BME280;62200;52.062;5.292;2022-07-24T03:31:46;101853.78;;;14.35;86.35
73864;BME280;62200;52.062;5.292;2022-07-24T03:34:12;101832.31;;;14.22;86.55
73864;BME280;62200;52.062;5.292;2022-07-24T03:36:38;101836.59;;;14.25;86.74
73864;BME280;62200;52.062;5.292;2022-07-24T03:39:04;101845.59;;;14.24;87.08
73864;BME280;62200;52.062;5.292;2022-07-24T03:41:32;101849.09;;;14.24;86.77
73864;BME280;62200;52.062;5.292;2022-07-24T03:43:59;101857.81;;;14.28;87.00
73864;BME280;62200;52.062;5.292;2022-07-24T03:46:24;101846.63;;;14.21;86.63
73864;BME280;62200;52.062;5.292;2022-07-24T03:48:50;101837.38;;;14.13;87.39
73864;BME280;62200;52.062;5.292;2022-07-24T03:51:15;101845.97;;;14.18;87.45
73864;BME280;62200;52.062;5.292;2022-07-24T03:53:41;101854.41;;;14.26;86.71
73864;BME280;62200;52.062;5.292;2022-07-24T03:56:10;101841.78;;;14.14;87.81
73864;BME280;62200;52.062;5.292;2022-07-24T03:58:36;101827.81;;;14.08;87.06
73864;BME280;62200;52.062;5.292;2022-07-24T04:01:03;101841.78;;;14.14;87.28
73864;BME280;62200;52.062;5.292;2022-07-24T04:03:29;101844.25;;;14.17;87.12
73864;BME280;62200;52.062;5.292;2022-07-24T04:05:55;101840.63;;;14.18;87.32
73864;BME280;62200;52.062;5.292;2022-07-24T04:08:22;101851.75;;;14.24;86.69
73864;BME280;62200;52.062;5.292;2022-07-24T04:10:47;101841.03;;;14.12;86.70
73864;BME280;62200;52.062;5.292;2022-07-24T04:13:13;101845.09;;;14.17;87.28
73864;BME280;62200;52.062;5.292;2022-07-24T04:15:38;101861.72;;;14.22;87.45
73864;BME280;62200;52.062;5.292;2022-07-24T04:18:04;101851.50;;;14.15;87.12
73864;BME280;62200;52.062;5.292;2022-07-24T04:20:30;101853.53;;;14.11;87.32
73864;BME280;62200;52.062;5.292;2022-07-24T04:22:55;101872.13;;;14.13;87.63
73864;BME280;62200;52.062;5.292;2022-07-24T04:25:21;101851.72;;;13.97;88.19
73864;BME280;62200;52.062;5.292;2022-07-24T04:27:46;101854.41;;;13.97;87.39
73864;BME280;62200;52.062;5.292;2022-07-24T04:30:13;101867.09;;;14.08;87.52
73864;BME280;62200;52.062;5.292;2022-07-24T04:32:39;101871.59;;;13.93;89.42
73864;BME280;62200;52.062;5.292;2022-07-24T04:35:05;101870.44;;;13.97;87.53
73864;BME280;62200;52.062;5.292;2022-07-24T04:37:31;101867.88;;;13.96;87.83
73864;BME280;62200;52.062;5.292;2022-07-24T04:39:56;101869.78;;;14.08;87.30
73864;BME280;62200;52.062;5.292;2022-07-24T04:42:23;101860.78;;;14.09;87.30
73864;BME280;62200;52.062;5.292;2022-07-24T04:44:48;101855.16;;;14.14;87.11
73864;BME280;62200;52.062;5.292;2022-07-24T04:47:14;101847.13;;;14.14;87.03
73864;BME280;62200;52.062;5.292;2022-07-24T04:49:39;101846.94;;;14.17;86.99
73864;BME280;62200;52.062;5.292;2022-07-24T04:52:04;101838.34;;;14.26;87.09
73864;BME280;62200;52.062;5.292;2022-07-24T04:54:30;101833.16;;;14.23;86.88
73864;BME280;62200;52.062;5.292;2022-07-24T04:56:55;101849.09;;;14.24;87.30
73864;BME280;62200;52.062;5.292;2022-07-24T05:02:01;101853.78;;;14.35;86.71
73864;BME280;62200;52.062;5.292;2022-07-24T05:04:29;101858.53;;;14.44;86.70
73864;BME280;62200;52.062;5.292;2022-07-24T05:06:55;101860.19;;;14.46;86.63
73864;BME280;62200;52.062;5.292;2022-07-24T05:09:21;101849.53;;;14.45;87.15
73864;BME280;62200;52.062;5.292;2022-07-24T05:11:46;101854.72;;;14.48;86.65
73864;BME280;62200;52.062;5.292;2022-07-24T05:14:12;101860.22;;;14.59;86.67
73864;BME280;62200;52.062;5.292;2022-07-24T05:16:37;101846.16;;;14.55;86.88
73864;BME280;62200;52.062;5.292;2022-07-24T05:19:03;101841.59;;;14.57;86.90
73864;BME280;62200;52.062;5.292;2022-07-24T05:21:29;101864.31;;;14.64;86.93
73864;BME280;62200;52.062;5.292;2022-07-24T05:23:54;101861.25;;;14.70;87.10
73864;BME280;62200;52.062;5.292;2022-07-24T05:26:19;101880.22;;;14.80;86.80
73864;BME280;62200;52.062;5.292;2022-07-24T05:28:47;101858.91;;;14.78;88.25
73864;BME280;62200;52.062;5.292;2022-07-24T05:31:13;101852.47;;;14.81;89.26
73864;BME280;62200;52.062;5.292;2022-07-24T05:33:38;101867.09;;;15.02;89.96
73864;BME280;62200;52.062;5.292;2022-07-24T05:36:04;101880.31;;;15.17;89.67
73864;BME280;62200;52.062;5.292;2022-07-24T05:38:29;101860.06;;;15.26;89.47
73864;BME280;62200;52.062;5.292;2022-07-24T05:40:55;101862.34;;;15.32;88.49
73864;BME280;62200;52.062;5.292;2022-07-24T05:43:21;101872.16;;;15.46;88.86
73864;BME280;62200;52.062;5.292;2022-07-24T05:45:46;101856.91;;;15.46;87.85
73864;BME280;62200;52.062;5.292;2022-07-24T05:48:12;101872.88;;;15.73;88.42
73864;BME280;62200;52.062;5.292;2022-07-24T05:50:38;101856.69;;;15.74;87.88
73864;BME280;62200;52.062;5.292;2022-07-24T05:53:06;101881.88;;;15.97;87.62
73864;BME280;62200;52.062;5.292;2022-07-24T05:55:37;101878.22;;;15.98;88.16
73864;BME280;62200;52.062;5.292;2022-07-24T05:58:03;101871.56;;;16.16;87.17
73864;BME280;62200;52.062;5.292;2022-07-24T06:00:29;101880.00;;;16.22;87.83
73864;BME280;62200;52.062;5.292;2022-07-24T06:02:54;101884.06;;;16.41;87.75
73864;BME280;62200;52.062;5.292;2022-07-24T06:05:20;101900.25;;;16.52;87.48
73864;BME280;62200;52.062;5.292;2022-07-24T06:07:46;101883.34;;;16.62;86.98
73864;BME280;62200;52.062;5.292;2022-07-24T06:10:12;101864.22;;;16.67;86.75
73864;BME280;62200;52.062;5.292;2022-07-24T06:12:37;101884.78;;;16.79;86.22
73864;BME280;62200;52.062;5.292;2022-07-24T06:15:16;101888.31;;;17.03;85.37
73864;BME280;62200;52.062;5.292;2022-07-24T06:17:42;101879.16;;;17.05;84.77
73864;BME280;62200;52.062;5.292;2022-07-24T06:20:09;101878.34;;;17.16;84.65
73864;BME280;62200;52.062;5.292;2022-07-24T06:22:40;101880.34;;;17.25;84.32
73864;BME280;62200;52.062;5.292;2022-07-24T06:25:11;101879.13;;;17.29;84.25
73864;BME280;62200;52.062;5.292;2022-07-24T06:27:41;101878.00;;;17.55;83.00
73864;BME280;62200;52.062;5.292;2022-07-24T06:30:11;101872.25;;;17.60;82.29
73864;BME280;62200;52.062;5.292;2022-07-24T06:32:37;101866.66;;;17.74;82.24
73864;BME280;62200;52.062;5.292;2022-07-24T06:35:03;101868.13;;;17.89;81.00
73864;BME280;62200;52.062;5.292;2022-07-24T06:37:28;101873.03;;;17.95;80.81
73864;BME280;62200;52.062;5.292;2022-07-24T06:39:54;101872.91;;;17.96;80.60
73864;BME280;62200;52.062;5.292;2022-07-24T06:42:20;101869.72;;;18.13;79.48
73864;BME280;62200;52.062;5.292;2022-07-24T06:44:53;101865.19;;;18.14;79.95
73864;BME280;62200;52.062;5.292;2022-07-24T06:47:20;101861.72;;;18.34;79.22
73864;BME280;62200;52.062;5.292;2022-07-24T06:49:46;101872.00;;;18.51;78.51
73864;BME280;62200;52.062;5.292;2022-07-24T06:52:16;101847.31;;;18.46;78.97
73864;BME280;62200;52.062;5.292;2022-07-24T06:57:51;101873.47;;;18.87;76.54
73864;BME280;62200;52.062;5.292;2022-07-24T07:00:17;101863.06;;;18.93;74.70
73864;BME280;62200;52.062;5.292;2022-07-24T07:02:44;101867.34;;;18.96;74.30
73864;BME280;62200;52.062;5.292;2022-07-24T07:05:11;101862.88;;;19.06;74.74
73864;BME280;62200;52.062;5.292;2022-07-24T07:07:40;101862.84;;;19.17;73.99
73864;BME280;62200;52.062;5.292;2022-07-24T07:10:13;101859.59;;;19.23;73.33
73864;BME280;62200;52.062;5.292;2022-07-24T07:12:40;101860.44;;;19.34;73.08
73864;BME280;62200;52.062;5.292;2022-07-24T07:15:09;101875.94;;;19.42;72.95
73864;BME280;62200;52.062;5.292;2022-07-24T07:17:37;101878.03;;;19.59;70.84
73864;BME280;62200;52.062;5.292;2022-07-24T07:20:03;101866.56;;;19.57;70.99
73864;BME280;62200;52.062;5.292;2022-07-24T07:22:31;101882.66;;;19.68;71.14
73864;BME280;62200;52.062;5.292;2022-07-24T07:24:56;101872.16;;;19.74;69.89
73864;BME280;62200;52.062;5.292;2022-07-24T07:27:23;101863.09;;;19.76;70.33
73864;BME280;62200;52.062;5.292;2022-07-24T07:29:48;101861.72;;;19.81;70.29
73864;BME280;62200;52.062;5.292;2022-07-24T07:32:14;101861.47;;;19.94;68.98
73864;BME280;62200;52.062;5.292;2022-07-24T07:34:42;101872.34;;;20.03;69.03
73864;BME280;62200;52.062;5.292;2022-07-24T07:37:08;101870.50;;;20.13;67.90
73864;BME280;62200;52.062;5.292;2022-07-24T07:39:34;101873.84;;;20.26;65.82
73864;BME280;62200;52.062;5.292;2022-07-24T07:42:04;101856.81;;;20.26;66.86
73864;BME280;62200;52.062;5.292;2022-07-24T07:47:17;101867.78;;;20.43;69.08
73864;BME280;62200;52.062;5.292;2022-07-24T07:49:52;101859.00;;;20.51;66.13
73864;BME280;62200;52.062;5.292;2022-07-24T07:52:22;101865.69;;;20.66;66.45
73864;BME280;62200;52.062;5.292;2022-07-24T07:54:48;101860.88;;;20.69;65.79
73864;BME280;62200;52.062;5.292;2022-07-24T07:57:15;101868.16;;;20.78;65.80
73864;BME280;62200;52.062;5.292;2022-07-24T07:59:40;101873.97;;;20.93;64.69
73864;BME280;62200;52.062;5.292;2022-07-24T08:02:06;101866.59;;;21.14;62.92
73864;BME280;62200;52.062;5.292;2022-07-24T08:04:37;101874.84;;;21.41;63.26
73864;BME280;62200;52.062;5.292;2022-07-24T08:07:02;101874.19;;;21.76;62.19
73864;BME280;62200;52.062;5.292;2022-07-24T08:09:27;101867.34;;;21.91;60.96
73864;BME280;62200;52.062;5.292;2022-07-24T08:11:53;101863.47;;;22.03;59.98
73864;BME280;62200;52.062;5.292;2022-07-24T08:14:18;101878.59;;;22.23;60.33
73864;BME280;62200;52.062;5.292;2022-07-24T08:16:44;101876.59;;;22.25;58.31
73864;BME280;62200;52.062;5.292;2022-07-24T08:19:09;101861.94;;;22.18;58.35
73864;BME280;62200;52.062;5.292;2022-07-24T08:21:35;101873.41;;;22.39;59.51
73864;BME280;62200;52.062;5.292;2022-07-24T08:24:00;101868.78;;;22.49;59.63
73864;BME280;62200;52.062;5.292;2022-07-24T08:26:26;101869.97;;;22.37;59.67
73864;BME280;62200;52.062;5.292;2022-07-24T08:28:56;101878.91;;;22.47;59.46
73864;BME280;62200;52.062;5.292;2022-07-24T08:31:22;101867.88;;;22.31;58.56
73864;BME280;62200;52.062;5.292;2022-07-24T08:33:47;101860.63;;;22.22;58.96
73864;BME280;62200;52.062;5.292;2022-07-24T08:36:13;101859.56;;;22.33;59.52
73864;BME280;62200;52.062;5.292;2022-07-24T08:38:38;101859.84;;;22.39;58.42
73864;BME280;62200;52.062;5.292;2022-07-24T08:41:05;101857.63;;;22.52;59.97
73864;BME280;62200;52.062;5.292;2022-07-24T08:43:30;101869.06;;;22.91;58.42
73864;BME280;62200;52.062;5.292;2022-07-24T08:45:56;101849.47;;;22.97;55.31
73864;BME280;62200;52.062;5.292;2022-07-24T08:48:23;101856.09;;;23.38;54.25
73864;BME280;62200;52.062;5.292;2022-07-24T08:50:50;101830.03;;;23.70;57.32
73864;BME280;62200;52.062;5.292;2022-07-24T08:53:19;101838.19;;;23.70;54.24
73864;BME280;62200;52.062;5.292;2022-07-24T08:55:45;101850.16;;;24.11;53.79
73864;BME280;62200;52.062;5.292;2022-07-24T08:58:10;101852.66;;;24.46;52.72
73864;BME280;62200;52.062;5.292;2022-07-24T09:00:36;101832.22;;;24.34;52.95
73864;BME280;62200;52.062;5.292;2022-07-24T09:03:02;101838.06;;;24.55;52.86
73864;BME280;62200;52.062;5.292;2022-07-24T09:05:27;101832.03;;;24.77;53.68
73864;BME280;62200;52.062;5.292;2022-07-24T09:08:25;101837.66;;;25.16;49.01
73864;BME280;62200;52.062;5.292;2022-07-24T09:10:58;101840.06;;;25.43;50.15
73864;BME280;62200;52.062;5.292;2022-07-24T09:13:26;101840.22;;;25.50;47.29
73864;BME280;62200;52.062;5.292;2022-07-24T09:15:52;101840.91;;;25.44;48.47
73864;BME280;62200;52.062;5.292;2022-07-24T09:18:29;101846.31;;;25.60;47.47
73864;BME280;62200;52.062;5.292;2022-07-24T09:20:56;101842.88;;;25.74;48.33
73864;BME280;62200;52.062;5.292;2022-07-24T09:23:22;101838.41;;;25.89;48.64
73864;BME280;62200;52.062;5.292;2022-07-24T09:25:53;101833.84;;;25.81;47.52
73864;BME280;62200;52.062;5.292;2022-07-24T09:28:20;101834.50;;;25.91;46.34
73864;BME280;62200;52.062;5.292;2022-07-24T09:30:46;101835.75;;;26.27;46.61
73864;BME280;62200;52.062;5.292;2022-07-24T09:35:41;101832.41;;;26.40;47.05
73864;BME280;62200;52.062;5.292;2022-07-24T09:38:15;101828.88;;;26.70;44.44
73864;BME280;62200;52.062;5.292;2022-07-24T09:40:42;101820.13;;;26.75;45.06
73864;BME280;62200;52.062;5.292;2022-07-24T09:43:16;101822.75;;;27.13;45.49
73864;BME280;62200;52.062;5.292;2022-07-24T09:46:06;101815.28;;;27.07;44.08
73864;BME280;62200;52.062;5.292;2022-07-24T09:51:11;101835.78;;;27.26;43.94
73864;BME280;62200;52.062;5.292;2022-07-24T09:53:38;101825.19;;;27.31;43.57
73864;BME280;62200;52.062;5.292;2022-07-24T09:58:47;101821.94;;;27.79;42.86
73864;BME280;62200;52.062;5.292;2022-07-24T10:01:16;101828.25;;;27.80;42.39
73864;BME280;62200;52.062;5.292;2022-07-24T10:03:44;101821.75;;;27.51;40.85
73864;BME280;62200;52.062;5.292;2022-07-24T10:06:13;101817.56;;;27.55;42.39
73864;BME280;62200;52.062;5.292;2022-07-24T10:08:41;101821.94;;;27.65;41.73
73864;BME280;62200;52.062;5.292;2022-07-24T10:11:07;101822.22;;;27.70;40.19
73864;BME280;62200;52.062;5.292;2022-07-24T10:13:34;101830.63;;;27.83;41.01
73864;BME280;62200;52.062;5.292;2022-07-24T10:16:03;101819.22;;;27.79;40.47
73864;BME280;62200;52.062;5.292;2022-07-24T10:18:47;101816.47;;;28.23;41.29
73864;BME280;62200;52.062;5.292;2022-07-24T10:21:17;101806.41;;;28.59;41.22
73864;BME280;62200;52.062;5.292;2022-07-24T10:23:57;101806.41;;;28.80;38.77
73864;BME280;62200;52.062;5.292;2022-07-24T10:26:36;101804.66;;;28.51;39.42
73864;BME280;62200;52.062;5.292;2022-07-24T10:29:07;101808.69;;;28.41;39.21
73864;BME280;62200;52.062;5.292;2022-07-24T10:31:40;101799.72;;;28.47;40.09
73864;BME280;62200;52.062;5.292;2022-07-24T10:34:51;101793.22;;;28.48;39.84
73864;BME280;62200;52.062;5.292;2022-07-24T10:40:20;101810.47;;;28.63;39.22
73864;BME280;62200;52.062;5.292;2022-07-24T10:45:33;101797.31;;;28.23;38.48
73864;BME280;62200;52.062;5.292;2022-07-24T10:53:30;101799.78;;;28.68;38.30
73864;BME280;62200;52.062;5.292;2022-07-24T10:56:18;101789.41;;;28.63;38.49
73864;BME280;62200;52.062;5.292;2022-07-24T10:59:08;101772.84;;;28.72;38.88
73864;BME280;62200;52.062;5.292;2022-07-24T11:01:45;101777.78;;;29.04;38.65
73864;BME280;62200;52.062;5.292;2022-07-24T11:06:46;101778.75;;;29.17;38.85
73864;BME280;62200;52.062;5.292;2022-07-24T11:09:13;101770.88;;;29.08;39.04
73864;BME280;62200;52.062;5.292;2022-07-24T11:12:03;101782.78;;;29.42;38.45
73864;BME280;62200;52.062;5.292;2022-07-24T11:17:38;101789.19;;;29.07;38.92
73864;BME280;62200;52.062;5.292;2022-07-24T11:20:08;101762.22;;;28.62;39.00
73864;BME280;62200;52.062;5.292;2022-07-24T11:22:39;101774.53;;;28.73;40.34
73864;BME280;62200;52.062;5.292;2022-07-24T11:25:07;101766.00;;;28.61;39.94
73864;BME280;62200;52.062;5.292;2022-07-24T11:27:47;101758.66;;;28.47;40.03
73864;BME280;62200;52.062;5.292;2022-07-24T11:30:14;101763.00;;;28.56;40.62
73864;BME280;62200;52.062;5.292;2022-07-24T11:32:40;101755.41;;;28.51;39.14
73864;BME280;62200;52.062;5.292;2022-07-24T11:35:07;101764.66;;;28.72;38.79
73864;BME280;62200;52.062;5.292;2022-07-24T11:37:35;101758.66;;;28.61;38.71
73864;BME280;62200;52.062;5.292;2022-07-24T11:40:01;101762.75;;;28.36;40.03
73864;BME280;62200;52.062;5.292;2022-07-24T11:42:29;101757.94;;;28.53;40.62
73864;BME280;62200;52.062;5.292;2022-07-24T11:44:54;101762.50;;;28.31;40.15
73864;BME280;62200;52.062;5.292;2022-07-24T11:47:21;101755.41;;;28.51;40.88
73864;BME280;62200;52.062;5.292;2022-07-24T11:49:55;101739.72;;;28.45;41.20
73864;BME280;62200;52.062;5.292;2022-07-24T11:52:25;101749.78;;;28.45;39.39
73864;BME280;62200;52.062;5.292;2022-07-24T11:54:54;101747.66;;;28.55;40.76
73864;BME280;62200;52.062;5.292;2022-07-24T11:57:30;101758.88;;;28.45;40.91
73864;BME280;62200;52.062;5.292;2022-07-24T11:59:56;101735.19;;;28.38;39.75
73864;BME280;62200;52.062;5.292;2022-07-24T12:02:22;101726.50;;;28.49;39.04
73864;BME280;62200;52.062;5.292;2022-07-24T12:04:49;101731.75;;;28.65;41.02
73864;BME280;62200;52.062;5.292;2022-07-24T12:07:20;101724.63;;;28.71;40.46
73864;BME280;62200;52.062;5.292;2022-07-24T12:09:54;101725.66;;;28.70;41.62
73864;BME280;62200;52.062;5.292;2022-07-24T12:12:28;101729.16;;;28.85;39.56
73864;BME280;62200;52.062;5.292;2022-07-24T12:15:14;101727.22;;;29.00;40.57
73864;BME280;62200;52.062;5.292;2022-07-24T12:17:53;101730.53;;;28.95;40.62
73864;BME280;62200;52.062;5.292;2022-07-24T12:20:22;101732.25;;;28.96;39.94
73864;BME280;62200;52.062;5.292;2022-07-24T12:22:48;101717.91;;;28.73;40.48
73864;BME280;62200;52.062;5.292;2022-07-24T12:25:14;101713.09;;;28.75;41.10
73864;BME280;62200;52.062;5.292;2022-07-24T12:27:44;101718.00;;;28.86;41.03
73864;BME280;62200;52.062;5.292;2022-07-24T12:30:26;101705.88;;;28.95;40.63
73864;BME280;62200;52.062;5.292;2022-07-24T12:36:10;101707.22;;;29.27;39.88
73864;BME280;62200;52.062;5.292;2022-07-24T12:41:17;101692.34;;;28.87;40.18
73864;BME280;62200;52.062;5.292;2022-07-24T12:43:50;101693.78;;;28.83;39.28
73864;BME280;62200;52.062;5.292;2022-07-24T12:46:17;101701.88;;;28.91;41.71
73864;BME280;62200;52.062;5.292;2022-07-24T12:48:59;101692.41;;;28.94;41.11
73864;BME280;62200;52.062;5.292;2022-07-24T12:51:25;101685.44;;;28.91;40.04
73864;BME280;62200;52.062;5.292;2022-07-24T12:53:55;101682.84;;;28.83;40.65
73864;BME280;62200;52.062;5.292;2022-07-24T12:56:21;101679.44;;;28.81;40.27
73864;BME280;62200;52.062;5.292;2022-07-24T12:58:55;101683.63;;;28.77;41.66
73864;BME280;62200;52.062;5.292;2022-07-24T13:01:22;101670.44;;;28.59;41.03
73864;BME280;62200;52.062;5.292;2022-07-24T13:03:58;101683.22;;;28.38;40.69
73864;BME280;62200;52.062;5.292;2022-07-24T13:06:41;101684.25;;;28.51;41.97
73864;BME280;62200;52.062;5.292;2022-07-24T13:09:08;101672.06;;;28.54;40.96
73864;BME280;62200;52.062;5.292;2022-07-24T13:11:36;101666.78;;;28.52;40.64
73864;BME280;62200;52.062;5.292;2022-07-24T13:14:02;101657.78;;;28.37;42.25
73864;BME280;62200;52.062;5.292;2022-07-24T13:16:32;101659.59;;;28.30;41.69
73864;BME280;62200;52.062;5.292;2022-07-24T13:18:59;101652.63;;;28.28;41.39
73864;BME280;62200;52.062;5.292;2022-07-24T13:21:25;101649.53;;;28.31;41.96
73864;BME280;62200;52.062;5.292;2022-07-24T13:23:51;101649.19;;;28.40;41.58
73864;BME280;62200;52.062;5.292;2022-07-24T13:26:16;101643.69;;;28.40;42.13
73864;BME280;62200;52.062;5.292;2022-07-24T13:28:42;101643.03;;;28.38;41.90
73864;BME280;62200;52.062;5.292;2022-07-24T13:31:07;101645.97;;;28.37;42.41
73864;BME280;62200;52.062;5.292;2022-07-24T13:33:33;101639.59;;;28.30;41.65